Tridell, Utah
Current Conditions -  °F | °C
As of 3:53 PM on Thursday 27 Nov 2014 (Local Time) from KVEL Reporting Station
Clear Clear  
Wind Chill: 51°   Ceiling: Unl
Heat Index: 51°   Visibility: 10mi
Dew Point: 23°   Wind: 3mph
Humidity: 33%   Direction: 110°ESE
Pressure: 30.27"   Gusts: NA
Location:  40.45°N, 109.85°W
Report Text: KVEL 272253Z AUTO 11003KT 10SM CLR 11/M05 A3027 RMK AO2 SLP247 T01061050
Loading
Personal Weather Stations






























Interactive Weather Map New forecast layout! Learn more

10-Day Weather Forecast

Advertisements
Track Severe Weather on mobile